Terminal Aerodrome Forecast
Issued by NWS Corpus Christi, TX

Home | Current Version | Previous Version | Text Only | Print | Product List | Glossary On
Versions: 1 2 3 4 5 6 7 8 9 10 11 12 13
413
FTUS44 KCRP 102338
TAFCRP
TAF
KCRP 102338Z 1100/1124 01008KT P6SM OVC020
     FM110300 VRB04KT P6SM OVC012
     FM110600 19004KT P6SM OVC008
      TEMPO 1111/1114 3SM BR OVC004
     FM111500 19006KT P6SM OVC012
     FM111800 18015G25KT P6SM OVC015=

USA.gov is the U.S. government's official web portal to all federal, state and local government web resources and services.